createdAt,value
2023-01-10T00:00:14.659Z,12.30
2023-01-10T00:03:21.401Z,12.00
2023-01-10T00:05:55.478Z,13.68
2023-01-10T00:08:43.443Z,13.48
2023-01-10T00:11:36.452Z,13.23
2023-01-10T00:14:23.404Z,12.98
2023-01-10T00:17:04.437Z,12.15
2023-01-10T00:19:51.403Z,13.30
2023-01-10T00:22:32.409Z,13.98
2023-01-10T00:25:20.408Z,11.30
2023-01-10T00:28:19.419Z,6.35
2023-01-10T00:31:13.443Z,10.50
2023-01-10T00:34:00.443Z,12.25
2023-01-10T00:36:34.508Z,4.85
2023-01-10T00:39:22.439Z,7.20
2023-01-10T00:42:22.391Z,9.68
2023-01-10T00:45:10.400Z,10.98
2023-01-10T00:47:51.473Z,5.75
2023-01-10T00:50:31.412Z,8.15
2023-01-10T00:53:12.582Z,4.40
2023-01-10T00:55:52.412Z,7.60
2023-01-10T00:58:34.006Z,8.23
2023-01-10T01:01:13.529Z,8.50
2023-01-10T01:04:01.454Z,9.77
2023-01-10T01:06:42.405Z,8.65
2023-01-10T01:09:23.516Z,12.50
2023-01-10T01:12:04.412Z,10.70
2023-01-10T01:14:52.426Z,9.70
2023-01-10T01:17:26.342Z,9.98
2023-01-10T01:20:14.427Z,10.15
2023-01-10T01:22:55.408Z,8.90
2023-01-10T01:25:43.396Z,8.82
2023-01-10T01:28:17.389Z,7.93
2023-01-10T01:31:05.477Z,10.40
2023-01-10T01:33:39.356Z,9.60
2023-01-10T01:36:27.417Z,16.90
2023-01-10T01:39:01.420Z,16.95
2023-01-10T01:42:04.419Z,13.98
2023-01-10T01:44:39.613Z,9.13
2023-01-10T01:47:37.444Z,10.10
2023-01-10T01:50:26.590Z,7.53
2023-01-10T01:53:16.429Z,7.65
2023-01-10T01:55:57.446Z,9.10
2023-01-10T01:58:46.516Z,15.05
2023-01-10T02:01:27.533Z,19.67
2023-01-10T02:04:15.577Z,13.43
2023-01-10T02:06:57.451Z,9.10
2023-01-10T02:09:51.447Z,16.42
2023-01-10T02:12:32.399Z,22.67
2023-01-10T02:15:20.403Z,6.15
2023-01-10T02:17:54.518Z,6.07
2023-01-10T02:20:43.423Z,6.45
2023-01-10T02:23:45.447Z,7.25
2023-01-10T02:26:45.426Z,11.10
2023-01-10T02:29:29.412Z,8.75
2023-01-10T02:32:35.575Z,9.07
2023-01-10T02:35:24.500Z,9.52
2023-01-10T02:38:35.450Z,9.10
2023-01-10T02:41:24.587Z,7.40
2023-01-10T02:44:18.357Z,8.70
2023-01-10T02:46:58.471Z,8.85
2023-01-10T02:49:48.494Z,7.28
2023-01-10T02:52:35.414Z,10.73
2023-01-10T02:55:16.513Z,9.20
2023-01-10T02:58:05.456Z,10.45
2023-01-10T03:01:02.525Z,9.82
2023-01-10T03:04:02.488Z,10.10
2023-01-10T03:06:51.541Z,5.20
2023-01-10T03:09:34.402Z,9.10
2023-01-10T03:12:26.499Z,7.88
2023-01-10T03:15:09.491Z,9.85
2023-01-10T03:17:59.535Z,8.13
2023-01-10T03:20:34.619Z,4.17
2023-01-10T03:23:22.412Z,10.68
2023-01-10T03:25:57.547Z,7.32
2023-01-10T03:28:59.416Z,4.30
2023-01-10T03:31:46.445Z,6.90
2023-01-10T03:34:27.979Z,9.32
2023-01-10T03:37:27.439Z,10.00
2023-01-10T03:40:06.683Z,6.35
2023-01-10T03:43:18.437Z,8.93
2023-01-10T03:45:59.181Z,8.48
2023-01-10T03:48:50.411Z,10.45
2023-01-10T03:51:24.763Z,9.63
2023-01-10T03:54:14.415Z,7.05
2023-01-10T03:56:50.875Z,11.15
2023-01-10T03:59:41.426Z,12.13
2023-01-10T04:02:21.411Z,10.25
2023-01-10T04:05:09.448Z,10.30
2023-01-10T04:07:43.419Z,8.35
2023-01-10T04:10:33.406Z,9.27
2023-01-10T04:13:07.481Z,8.98
2023-01-10T04:15:55.459Z,10.38
2023-01-10T04:18:35.441Z,9.27
2023-01-10T04:21:23.416Z,10.85
2023-01-10T04:23:57.401Z,11.90
2023-01-10T04:26:45.429Z,6.63
2023-01-10T04:29:19.371Z,10.15
2023-01-10T04:32:07.470Z,6.18
2023-01-10T04:34:47.450Z,11.68
2023-01-10T04:37:28.587Z,11.05
2023-01-10T04:40:09.443Z,10.00
2023-01-10T04:42:57.408Z,6.82
2023-01-10T04:45:37.529Z,7.25
2023-01-10T04:48:18.569Z,10.85
2023-01-10T04:50:59.434Z,5.75
2023-01-10T04:53:47.423Z,9.85
2023-01-10T04:56:22.395Z,4.30
2023-01-10T04:59:12.427Z,8.05
2023-01-10T05:01:52.563Z,10.50
2023-01-10T05:04:33.526Z,7.60
2023-01-10T05:07:13.425Z,11.88
2023-01-10T05:09:54.536Z,11.50
2023-01-10T05:12:34.478Z,8.38
2023-01-10T05:15:15.521Z,5.55
2023-01-10T05:17:57.464Z,4.65
2023-01-10T05:20:38.488Z,4.65
2023-01-10T05:23:19.458Z,8.10
2023-01-10T05:26:07.439Z,6.10
2023-01-10T05:28:41.752Z,4.97
2023-01-10T05:31:30.496Z,6.78
2023-01-10T05:34:10.437Z,5.28
2023-01-10T05:36:51.528Z,5.13
2023-01-10T05:39:31.469Z,5.43
2023-01-10T05:42:12.541Z,7.20
2023-01-10T05:44:52.430Z,8.25
2023-01-10T05:47:40.431Z,7.38
2023-01-10T05:50:14.406Z,6.68
2023-01-10T05:53:02.453Z,7.95
2023-01-10T05:55:42.465Z,8.57
2023-01-10T05:58:23.539Z,7.13
2023-01-10T06:01:04.497Z,4.00
2023-01-10T06:03:52.423Z,8.82
2023-01-10T06:06:26.372Z,10.65
2023-01-10T06:09:14.472Z,4.97
2023-01-10T06:11:54.458Z,6.28
2023-01-10T06:14:35.487Z,5.53
2023-01-10T06:17:16.441Z,5.53
2023-01-10T06:19:57.509Z,5.43
2023-01-10T06:22:38.443Z,6.70
2023-01-10T06:25:21.559Z,5.78
2023-01-10T06:28:02.442Z,6.53
2023-01-10T06:30:50.478Z,6.97
2023-01-10T06:33:31.424Z,7.00
2023-01-10T06:36:12.570Z,6.57
2023-01-10T06:38:53.452Z,6.75
2023-01-10T06:41:34.641Z,8.35
2023-01-10T06:44:15.457Z,5.45
2023-01-10T06:47:03.466Z,11.30
2023-01-10T06:49:37.448Z,8.52
2023-01-10T06:52:25.422Z,6.50
2023-01-10T06:55:05.458Z,4.35
2023-01-10T06:57:53.449Z,6.72
2023-01-10T07:00:34.453Z,12.43
2023-01-10T07:03:16.510Z,12.98
2023-01-10T07:05:56.414Z,10.38
2023-01-10T07:08:37.534Z,16.52
2023-01-10T07:11:18.438Z,11.85
2023-01-10T07:14:06.480Z,12.40
2023-01-10T07:16:46.472Z,9.55
2023-01-10T07:19:27.561Z,5.45
2023-01-10T07:22:07.510Z,5.70
2023-01-10T07:24:48.728Z,9.60
2023-01-10T07:27:29.431Z,12.90
2023-01-10T07:30:25.481Z,10.10
2023-01-10T07:33:19.469Z,7.95
2023-01-10T07:36:07.450Z,7.88
2023-01-10T07:38:41.509Z,6.15
2023-01-10T07:41:29.445Z,4.22
2023-01-10T07:44:03.571Z,5.80
2023-01-10T07:46:50.486Z,6.22
2023-01-10T07:49:24.547Z,8.23
2023-01-10T07:52:14.410Z,6.03
2023-01-10T07:54:48.517Z,8.75
2023-01-10T07:57:36.429Z,8.65
2023-01-10T08:00:18.906Z,6.60
2023-01-10T08:03:13.592Z,8.52
2023-01-10T08:06:21.441Z,9.20
2023-01-10T08:09:02.435Z,4.63
2023-01-10T08:11:56.409Z,7.00
2023-01-10T08:14:43.506Z,8.45
2023-01-10T08:17:24.541Z,6.05
2023-01-10T08:20:04.445Z,5.45
2023-01-10T08:22:52.479Z,5.40
2023-01-10T08:25:26.838Z,8.05
2023-01-10T08:28:14.448Z,9.85
2023-01-10T08:30:55.526Z,9.20
2023-01-10T08:33:43.438Z,7.25
2023-01-10T08:36:22.157Z,9.07
2023-01-10T08:39:09.451Z,7.40
2023-01-10T08:41:43.404Z,4.65
2023-01-10T08:44:33.461Z,7.43
2023-01-10T08:47:07.396Z,6.30
2023-01-10T08:49:56.432Z,4.93
2023-01-10T08:52:38.441Z,8.20
2023-01-10T08:55:19.584Z,8.27
2023-01-10T08:58:00.453Z,9.68
2023-01-10T09:00:48.429Z,14.23
2023-01-10T09:03:28.415Z,14.55
2023-01-10T09:06:09.568Z,11.75
2023-01-10T09:08:49.428Z,11.15
2023-01-10T09:11:37.447Z,13.02
2023-01-10T09:14:11.389Z,11.05
2023-01-10T09:16:59.448Z,10.60
2023-01-10T09:19:33.423Z,13.48
2023-01-10T09:22:21.444Z,11.30
2023-01-10T09:25:02.452Z,9.27
2023-01-10T09:27:43.601Z,9.55
2023-01-10T09:30:24.492Z,10.50
2023-01-10T09:33:05.542Z,8.00
2023-01-10T09:35:47.477Z,7.80
2023-01-10T09:38:28.533Z,9.25
2023-01-10T09:41:15.466Z,8.90
2023-01-10T09:44:01.235Z,9.38
2023-01-10T09:46:54.489Z,11.63
2023-01-10T09:50:02.484Z,12.13
2023-01-10T09:52:42.952Z,10.18
2023-01-10T09:55:36.433Z,10.07
2023-01-10T09:58:16.452Z,12.20
2023-01-10T10:01:11.474Z,12.88
2023-01-10T10:03:45.519Z,11.82
2023-01-10T10:06:33.612Z,12.77
2023-01-10T10:09:16.456Z,12.18
2023-01-10T10:12:29.482Z,10.77
2023-01-10T10:15:13.488Z,11.85
2023-01-10T10:18:16.490Z,10.10
2023-01-10T10:21:27.468Z,23.65
2023-01-10T10:24:20.561Z,24.23
2023-01-10T10:27:06.468Z,25.23
2023-01-10T10:29:56.543Z,11.73
2023-01-10T10:32:40.469Z,6.75
2023-01-10T10:35:24.565Z,6.28
2023-01-10T10:38:09.447Z,8.00
2023-01-10T10:40:58.469Z,11.77
2023-01-10T10:43:35.759Z,9.30
2023-01-10T10:46:27.471Z,10.63
2023-01-10T10:49:05.191Z,11.77
2023-01-10T10:51:59.464Z,12.95
2023-01-10T10:54:35.644Z,9.63
2023-01-10T10:57:25.464Z,9.30
2023-01-10T11:00:21.455Z,11.27
2023-01-10T11:03:12.484Z,8.93
2023-01-10T11:05:47.561Z,8.70
2023-01-10T11:08:36.492Z,7.40
2023-01-10T11:11:20.452Z,6.57
2023-01-10T11:14:16.482Z,6.72
2023-01-10T11:17:23.451Z,5.07
2023-01-10T11:20:24.470Z,13.18
2023-01-10T11:23:18.470Z,8.95
2023-01-10T11:26:36.484Z,9.25
2023-01-10T11:29:40.469Z,6.95
2023-01-10T11:32:36.494Z,8.60
2023-01-10T11:35:17.708Z,7.45
2023-01-10T11:38:07.455Z,10.05
2023-01-10T11:40:42.544Z,7.00
2023-01-10T11:43:32.491Z,10.02
2023-01-10T11:46:14.529Z,8.73
2023-01-10T11:49:13.456Z,8.45
2023-01-10T11:51:53.528Z,7.32
2023-01-10T11:54:41.477Z,6.18
2023-01-10T11:57:29.526Z,7.15
2023-01-10T12:00:17.468Z,6.68
2023-01-10T12:02:52.586Z,7.13
2023-01-10T12:05:41.455Z,7.88
2023-01-10T12:08:31.629Z,7.80
2023-01-10T12:13:45.867Z,8.30
2023-01-10T12:16:36.561Z,9.45
2023-01-10T12:19:12.905Z,7.60
2023-01-10T12:22:00.502Z,8.63
2023-01-10T12:24:36.009Z,9.10
2023-01-10T12:27:27.457Z,9.52
2023-01-10T12:30:36.466Z,8.82
2023-01-10T12:33:34.498Z,9.32
2023-01-10T12:36:11.475Z,9.02
2023-01-10T12:39:13.481Z,9.90
2023-01-10T12:42:06.191Z,9.63
2023-01-10T12:44:54.482Z,10.02
2023-01-10T12:47:37.563Z,8.73
2023-01-10T12:50:25.464Z,9.35
2023-01-10T12:53:05.568Z,11.10
2023-01-10T12:55:51.494Z,10.27
2023-01-10T12:58:39.649Z,10.90
2023-01-10T13:01:34.578Z,11.52
2023-01-10T13:04:22.532Z,11.75
2023-01-10T13:07:03.481Z,10.57
2023-01-10T13:10:11.470Z,10.80
2023-01-10T13:12:47.576Z,11.90
2023-01-10T13:15:44.597Z,11.15
2023-01-10T13:18:38.590Z,12.38
2023-01-10T13:21:26.475Z,11.63
2023-01-10T13:24:28.488Z,11.77
2023-01-10T13:27:31.625Z,12.98
2023-01-10T13:30:47.492Z,12.97
2023-01-10T13:33:38.562Z,12.23
2023-01-10T13:36:32.520Z,10.98
2023-01-10T13:39:45.473Z,11.77
2023-01-10T13:42:54.499Z,10.30
2023-01-10T13:45:38.789Z,12.30
2023-01-10T13:48:33.483Z,12.15
2023-01-10T13:51:21.519Z,12.95
2023-01-10T13:54:23.537Z,12.65
2023-01-10T13:56:57.567Z,39.00
2023-01-10T14:00:06.583Z,45.95
2023-01-10T14:02:47.513Z,21.05
2023-01-10T14:05:41.513Z,19.05
2023-01-10T14:08:29.499Z,19.38
2023-01-10T14:11:18.559Z,15.98
2023-01-10T14:14:00.461Z,16.10
2023-01-10T14:16:53.501Z,15.45
2023-01-10T14:19:48.512Z,13.27
2023-01-10T14:22:38.476Z,12.48
2023-01-10T14:25:31.527Z,14.63
2023-01-10T14:28:29.512Z,16.52
2023-01-10T14:31:03.731Z,17.88
2023-01-10T14:33:51.525Z,16.20
2023-01-10T14:36:54.668Z,21.02
2023-01-10T14:39:42.480Z,26.92
2023-01-10T14:42:21.573Z,29.85
2023-01-10T14:45:12.602Z,33.15
2023-01-10T14:47:48.781Z,31.95
2023-01-10T14:50:39.510Z,28.23
2023-01-10T14:56:01.543Z,12.32
2023-01-10T14:58:42.537Z,14.43
2023-01-10T15:01:39.556Z,15.90
2023-01-10T15:04:35.661Z,17.85
2023-01-10T15:07:23.473Z,16.45
2023-01-10T15:10:04.500Z,22.23
2023-01-10T15:12:58.489Z,29.40
2023-01-10T15:15:46.609Z,21.55
2023-01-10T15:18:51.494Z,17.50
2023-01-10T15:21:39.526Z,17.67
2023-01-10T15:24:32.839Z,28.38
2023-01-10T15:27:21.484Z,22.83
2023-01-10T15:30:02.666Z,23.77
2023-01-10T15:32:57.476Z,20.33
2023-01-10T15:35:45.634Z,17.45
2023-01-10T15:38:28.497Z,23.45
2023-01-10T15:41:22.532Z,19.92
2023-01-10T15:44:29.547Z,19.88
2023-01-10T15:47:04.660Z,22.27
2023-01-10T15:50:01.001Z,25.15
2023-01-10T15:52:36.185Z,29.75
2023-01-10T15:55:41.908Z,24.27
2023-01-10T15:58:21.009Z,20.80
2023-01-10T16:01:08.636Z,19.77
2023-01-10T16:03:43.669Z,16.35
2023-01-10T16:06:39.505Z,16.75
2023-01-10T16:09:27.861Z,14.73
2023-01-10T16:12:26.527Z,13.23
2023-01-10T16:15:07.612Z,12.80
2023-01-10T16:17:47.497Z,15.65
2023-01-10T16:20:48.633Z,19.90
2023-01-10T16:23:40.500Z,24.35
2023-01-10T16:26:21.634Z,13.95
2023-01-10T16:29:01.529Z,20.52
2023-01-10T16:31:49.562Z,23.27
2023-01-10T16:34:30.541Z,20.08
2023-01-10T16:37:11.606Z,18.90
2023-01-10T16:39:51.543Z,17.85
2023-01-10T16:42:51.199Z,14.75
2023-01-10T16:45:31.600Z,17.65
2023-01-10T16:48:13.683Z,21.58
2023-01-10T16:50:54.511Z,17.85
2023-01-10T16:53:35.621Z,17.90
2023-01-10T16:56:19.499Z,23.27
2023-01-10T16:59:02.013Z,28.20
2023-01-10T17:01:44.703Z,32.28
2023-01-10T17:04:28.069Z,33.80
2023-01-10T17:07:08.512Z,35.42
2023-01-10T17:09:49.611Z,23.50
2023-01-10T17:12:30.520Z,20.10
2023-01-10T17:15:14.116Z,16.05
2023-01-10T17:17:53.525Z,20.60
2023-01-10T17:20:34.687Z,19.30
2023-01-10T17:23:16.584Z,19.77
2023-01-10T17:26:11.550Z,20.48
2023-01-10T17:28:52.539Z,20.10
2023-01-10T17:31:40.541Z,18.98
2023-01-10T17:34:14.452Z,18.80
2023-01-10T17:37:02.532Z,19.40
2023-01-10T17:39:37.840Z,19.42
2023-01-10T17:42:25.533Z,21.45
2023-01-10T17:45:06.572Z,24.30
2023-01-10T17:47:54.548Z,20.63
2023-01-10T17:50:28.507Z,22.00
2023-01-10T17:53:16.682Z,23.67
2023-01-10T17:55:57.603Z,22.55
2023-01-10T17:58:38.729Z,22.73
2023-01-10T18:01:27.655Z,23.05
2023-01-10T18:04:15.518Z,21.52
2023-01-10T18:06:52.067Z,19.08
2023-01-10T18:09:39.538Z,21.85
2023-01-10T18:12:13.494Z,23.27
2023-01-10T18:15:01.565Z,21.83
2023-01-10T18:17:35.575Z,21.25
2023-01-10T18:20:23.674Z,23.35
2023-01-10T18:23:16.331Z,20.70
2023-01-10T18:26:06.526Z,22.60
2023-01-10T18:28:42.710Z,24.65
2023-01-10T18:31:31.531Z,25.13
2023-01-10T18:34:11.701Z,30.02
2023-01-10T18:36:52.622Z,35.05
2023-01-10T18:39:32.519Z,49.50
2023-01-10T18:42:13.792Z,50.58
2023-01-10T18:44:54.689Z,34.58
2023-01-10T18:47:35.693Z,29.73
2023-01-10T18:50:16.604Z,23.33
2023-01-10T18:53:04.539Z,20.42
2023-01-10T18:55:44.518Z,20.45
2023-01-10T18:58:25.680Z,19.85
2023-01-10T19:01:11.587Z,20.70
2023-01-10T19:03:59.703Z,20.40
2023-01-10T19:06:33.746Z,20.85
2023-01-10T19:09:21.653Z,25.30
2023-01-10T19:12:01.671Z,23.33
2023-01-10T19:14:49.533Z,24.23
2023-01-10T19:17:24.999Z,22.92
2023-01-10T19:20:12.540Z,22.83
2023-01-10T19:22:47.631Z,23.65
2023-01-10T19:25:35.531Z,20.52
2023-01-10T19:28:15.514Z,21.92
2023-01-10T19:31:04.526Z,22.77
2023-01-10T19:33:45.718Z,19.30
2023-01-10T19:36:27.665Z,21.45
2023-01-10T19:39:08.767Z,20.73
2023-01-10T19:41:49.622Z,20.67
2023-01-10T19:44:29.715Z,19.88
2023-01-10T19:47:11.643Z,19.27
2023-01-10T19:49:51.747Z,21.27
2023-01-10T19:52:39.545Z,18.25
2023-01-10T19:55:20.721Z,19.75
2023-01-10T19:58:08.532Z,17.52
2023-01-10T20:00:42.475Z,17.77
2023-01-10T20:03:30.749Z,23.75
2023-01-10T20:06:20.784Z,23.55
2023-01-10T20:08:55.623Z,27.77
2023-01-10T20:11:48.716Z,25.80
2023-01-10T20:14:34.558Z,24.65
2023-01-10T20:17:28.601Z,24.98
2023-01-10T20:20:16.513Z,21.63
2023-01-10T20:22:50.684Z,22.17
2023-01-10T20:25:37.761Z,22.95
2023-01-10T20:28:11.646Z,26.10
2023-01-10T20:30:59.549Z,27.98
2023-01-10T20:33:40.527Z,21.13
2023-01-10T20:36:36.542Z,19.77
2023-01-10T20:39:24.640Z,15.63
2023-01-10T20:42:06.585Z,15.43
2023-01-10T20:45:00.600Z,16.23
2023-01-10T20:47:48.717Z,16.65
2023-01-10T20:50:29.637Z,20.45
2023-01-10T20:53:24.518Z,19.17
2023-01-10T20:56:13.688Z,19.25
2023-01-10T20:58:48.788Z,20.13
2023-01-10T21:01:36.660Z,19.90
2023-01-10T21:04:19.536Z,18.27
2023-01-10T21:07:00.594Z,11.68
2023-01-10T21:09:48.591Z,12.95
2023-01-10T21:12:26.786Z,14.70
2023-01-10T21:15:15.608Z,15.75
2023-01-10T21:17:50.075Z,16.25
2023-01-10T21:20:37.598Z,16.05
2023-01-10T21:23:11.724Z,13.77
2023-01-10T21:25:59.582Z,12.75
2023-01-10T21:28:34.884Z,12.35
2023-01-10T21:31:26.607Z,11.88
2023-01-10T21:34:00.556Z,14.40
2023-01-10T21:36:49.541Z,15.15
2023-01-10T21:39:30.554Z,9.13
2023-01-10T21:42:30.415Z,6.60
2023-01-10T21:45:14.532Z,12.32
2023-01-10T21:47:56.346Z,12.10
2023-01-10T21:50:39.584Z,9.52
2023-01-10T21:53:20.685Z,6.72
2023-01-10T21:56:04.596Z,8.90
2023-01-10T21:58:53.557Z,7.72
2023-01-10T22:01:27.672Z,8.95
2023-01-10T22:04:17.215Z,8.85
2023-01-10T22:07:11.540Z,12.00
2023-01-10T22:09:59.571Z,9.80
2023-01-10T22:12:33.770Z,5.63
2023-01-10T22:15:21.611Z,5.20
2023-01-10T22:17:55.679Z,9.23
2023-01-10T22:20:43.583Z,3.55
2023-01-10T22:23:17.624Z,7.45
2023-01-10T22:26:07.557Z,11.27
2023-01-10T22:28:41.667Z,12.00
2023-01-10T22:31:28.600Z,8.85
2023-01-10T22:34:09.583Z,9.93
2023-01-10T22:37:03.552Z,11.38
2023-01-10T22:39:51.609Z,9.93
2023-01-10T22:42:27.103Z,6.32
2023-01-10T22:45:14.543Z,7.65
2023-01-10T22:47:55.542Z,9.02
2023-01-10T22:50:42.544Z,7.28
2023-01-10T22:53:16.649Z,8.00
2023-01-10T22:56:06.538Z,8.60
2023-01-10T22:58:42.801Z,12.18
2023-01-10T23:01:31.582Z,8.83
2023-01-10T23:04:05.662Z,8.43
2023-01-10T23:06:53.583Z,11.90
2023-01-10T23:09:27.640Z,12.30
2023-01-10T23:12:14.587Z,10.63
2023-01-10T23:14:55.606Z,9.85
2023-01-10T23:17:42.596Z,10.13
2023-01-10T23:20:24.612Z,10.88
2023-01-10T23:23:18.536Z,11.63
2023-01-10T23:26:10.572Z,11.18
2023-01-10T23:28:48.661Z,9.88
2023-01-10T23:31:38.587Z,10.38
2023-01-10T23:34:12.673Z,10.65
2023-01-10T23:37:00.615Z,10.57
2023-01-10T23:39:34.619Z,10.85
2023-01-10T23:42:21.536Z,11.15
2023-01-10T23:45:02.613Z,13.75
2023-01-10T23:47:56.570Z,11.93
2023-01-10T23:50:44.584Z,14.05
2023-01-10T23:53:25.578Z,13.10
2023-01-10T23:56:13.604Z,13.57
2023-01-10T23:58:47.669Z,13.55
